Autopride — CQQE — position and weather

sailwx.info

Track history (hours):
 
Tides and Currents Weather Stations Pressure Air Temp Water Temp Dewpoint Dewpoint Depression Visibility Wind Speed Wind Dir Waves Ship Positions

Autopride

Last reported at 2015-Aug-01 23:34 UTC. Time now 2015-Aug-30 03:40 UTC.
Position N 50°09' W 003°30'.
Warning: this ship's position is 28 days out of date.

Length 125 m; draft 4.7 m.

Type: Cargo ship. MMSI: 255801560.

Date/timePositionNaut miles runAvg speedWind from/ knotsBaromVisibWave heightAir tempDewpointWater temp
2015-Aug-01 23:34N 50°09' W 003°30'1414.0
2015-Aug-01 22:34N 50°12' W 003°08'1413.9
2015-Aug-01 21:34N 50°14' W 002°47'1514.1
2015-Aug-01 20:30N 50°17' W 002°24'1313.3
2015-Aug-01 19:32N 50°19' W 002°04'3013.7
2015-Aug-01 17:23N 50°24' W 001°18'6316.5
2015-Aug-01 13:33N 50°35' E 000°19'1515.4
2015-Aug-01 12:33N 50°41' E 000°41'1514.5
2015-Aug-01 11:33N 50°50' E 000°60'1414.3
2015-Aug-01 10:33N 50°59' E 001°17'1616.3
2015-Aug-01 09:33N 51°10' E 001°37'2020.2
2015-Aug-01 08:33N 51°29' E 001°46'1919.2
2015-Aug-01 07:33N 51°48' E 001°44'1818.3
2015-Aug-01 06:33N 52°06' E 001°48'1817.5
2015-Aug-01 05:33N 52°23' E 001°55'1616.1
2015-Aug-01 04:33N 52°39' E 001°55'1414.3
2015-Aug-01 03:33N 52°52' E 001°44'1514.7
2015-Aug-01 02:33N 53°02' E 001°27'1514.8
2015-Aug-01 01:33N 53°13' E 001°10'1514.6
2015-Aug-01 00:33N 53°22' E 000°51'1615.5
2015-Jul-31 23:33N 53°28' E 000°27'1413.9
2015-Jul-31 22:34N 53°34' E 000°06'1110.7
2015-Jul-31 21:33N 53°38' W 000°11'0 0.4
2015-Jul-31 20:31N 53°38' W 000°12'0 0.0
2015-Jul-31 19:31N 53°38' W 000°12'0 0.0
2015-Jul-31 18:31N 53°38' W 000°12'0 0.0
2015-Jul-31 17:31N 53°38' W 000°12'0 0.0
2015-Jul-31 16:31N 53°38' W 000°12'0 0.0
2015-Jul-31 15:31N 53°38' W 000°12'0 0.0
2015-Jul-31 14:31N 53°38' W 000°12'0 0.0
2015-Jul-31 13:31N 53°38' W 000°12'0 0.0
2015-Jul-31 12:31N 53°38' W 000°12'0 0.0
2015-Jul-31 11:31N 53°38' W 000°12'0 0.0
2015-Jul-31 10:31N 53°38' W 000°12'0 0.0
2015-Jul-31 09:31N 53°38' W 000°12'0 0.3
2015-Jul-31 08:33N 53°38' W 000°12'2 1.5
2015-Jul-31 07:34N 53°38' W 000°09'9 8.9
2015-Jul-31 06:33N 53°34' E 000°05'1111.0
2015-Jul-31 05:33N 53°30' E 000°22'8 7.8
2015-Jul-31 04:33N 53°27' E 000°34'23 9.6
2015-Jul-31 02:07N 53°15' E 001°08'611.5
2015-Jul-31 01:34N 53°11' E 001°16'1414.1
2015-Jul-31 00:34N 53°00' E 001°31'1414.5
2015-Jul-30 23:33N 52°50' E 001°48'1312.9
2015-Jul-30 22:33N 52°39' E 002°01'1111.4
2015-Jul-30 21:34N 52°29' E 002°09'6410.7
2015-Jul-30 15:33N 51°28' E 002°43'8 8.4
2015-Jul-30 14:34N 51°22' E 002°52'1312.9
2015-Jul-30 13:33N 51°20' E 003°13'1 0.5
2015-Jul-30 12:33N 51°20' E 003°13'1 1.0
2015-Jul-30 11:32N 51°19' E 003°13'0 0.0
2015-Jul-30 10:29N 51°19' E 003°13'0 0.0
2015-Jul-30 09:32N 51°19' E 003°13'0 0.0
2015-Jul-30 08:32N 51°19' E 003°13'0 0.0
2015-Jul-30 07:32N 51°19' E 003°13'0 0.0
2015-Jul-30 06:32N 51°19' E 003°13'0 0.0
2015-Jul-30 05:32N 51°19' E 003°13'0 0.0
2015-Jul-30 04:32N 51°19' E 003°13'0 0.0
2015-Jul-30 03:32N 51°19' E 003°13'0 0.0
2015-Jul-30 02:32N 51°19' E 003°13'0 0.0
2015-Jul-30 01:32N 51°19' E 003°13'0 0.0
2015-Jul-30 00:32N 51°19' E 003°13'0 0.0
2015-Jul-29 23:32N 51°19' E 003°13'0 0.0
2015-Jul-29 22:32N 51°19' E 003°13'0 0.0
2015-Jul-29 21:32N 51°19' E 003°13'0 0.0
2015-Jul-29 20:32N 51°19' E 003°13'0 0.0
2015-Jul-29 19:32N 51°19' E 003°13'0 0.0
2015-Jul-29 18:32N 51°19' E 003°13'0 0.0
2015-Jul-29 17:31N 51°19' E 003°13'0 0.0
2015-Jul-29 16:31N 51°19' E 003°13'0 0.0
2015-Jul-29 15:31N 51°19' E 003°13'0 0.0
2015-Jul-29 14:31N 51°19' E 003°13'0 0.0
2015-Jul-29 13:31N 51°19' E 003°13'0 0.0
2015-Jul-29 12:31N 51°19' E 003°13'0 0.0
2015-Jul-29 11:28N 51°19' E 003°13'0 0.0
2015-Jul-29 10:31N 51°19' E 003°13'0 0.0
2015-Jul-29 09:31N 51°19' E 003°13'0 0.0
2015-Jul-29 08:32N 51°19' E 003°13'1 1.4
2015-Jul-29 07:33N 51°20' E 003°13'6 6.4
2015-Jul-29 06:33N 51°24' E 003°05'1413.8
2015-Jul-29 05:33N 51°22' E 002°43'1212.3
2015-Jul-29 04:33N 51°20' E 002°24'9 8.5
2015-Jul-29 03:33N 51°16' E 002°12'9 8.5
2015-Jul-29 02:34N 51°12' E 002°00'8 8.3
2015-Jul-29 01:33N 51°07' E 001°49'8 8.2
2015-Jul-29 00:34N 51°02' E 001°40'9 8.8
2015-Jul-28 23:34N 50°55' E 001°30'9 9.3
2015-Jul-28 22:33N 50°46' E 001°25'46 9.0
2015-Jul-28 17:28N 50°23' E 000°24'  
2015-Jul-26 04:06N 42°14' W 008°53'6 9.8
2015-Jul-26 03:33N 42°18' W 008°58'1010.2
2015-Jul-26 02:33N 42°23' W 009°09'1010.2
2015-Jul-26 01:33N 42°29' W 009°21'1010.1
2015-Jul-26 00:33N 42°34' W 009°33'1010.1
2015-Jul-25 23:34N 42°40' W 009°44'  
2015-Jul-23 03:05N 50°35' E 000°16'5 9.0
2015-Jul-23 02:34N 50°36' E 000°23'9 8.7
2015-Jul-23 01:33N 50°39' E 000°36'9 8.9
2015-Jul-23 00:33N 50°44' E 000°47'10 9.8
2015-Jul-22 23:34N 50°50' E 000°60'  
Track history (hours):
 
Tides and Currents Weather Stations Pressure Air Temp Water Temp Dewpoint Dewpoint Depression Visibility Wind Speed Wind Dir Waves Ship Positions

Autopride

Last reported at 2015-Aug-01 23:34 UTC. Time now 2015-Aug-30 03:40 UTC.
Position N 50°09' W 003°30'.
Warning: this ship's position is 28 days out of date.

Length 125 m; draft 4.7 m.

Type: Cargo ship. MMSI: 255801560.

Date/timePositionNaut miles runAvg speedWind from/ knotsBaromVisibWave heightAir tempDewpointWater temp
2015-Aug-01 23:34N 50°09' W 003°30'1414.0
2015-Aug-01 22:34N 50°12' W 003°08'1413.9
2015-Aug-01 21:34N 50°14' W 002°47'1514.1
2015-Aug-01 20:30N 50°17' W 002°24'1313.3
2015-Aug-01 19:32N 50°19' W 002°04'3013.7
2015-Aug-01 17:23N 50°24' W 001°18'6316.5
2015-Aug-01 13:33N 50°35' E 000°19'1515.4
2015-Aug-01 12:33N 50°41' E 000°41'1514.5
2015-Aug-01 11:33N 50°50' E 000°60'1414.3
2015-Aug-01 10:33N 50°59' E 001°17'1616.3
2015-Aug-01 09:33N 51°10' E 001°37'2020.2
2015-Aug-01 08:33N 51°29' E 001°46'1919.2
2015-Aug-01 07:33N 51°48' E 001°44'1818.3
2015-Aug-01 06:33N 52°06' E 001°48'1817.5
2015-Aug-01 05:33N 52°23' E 001°55'1616.1
2015-Aug-01 04:33N 52°39' E 001°55'1414.3
2015-Aug-01 03:33N 52°52' E 001°44'1514.7
2015-Aug-01 02:33N 53°02' E 001°27'1514.8
2015-Aug-01 01:33N 53°13' E 001°10'1514.6
2015-Aug-01 00:33N 53°22' E 000°51'1615.5
2015-Jul-31 23:33N 53°28' E 000°27'1413.9
2015-Jul-31 22:34N 53°34' E 000°06'1110.7
2015-Jul-31 21:33N 53°38' W 000°11'0 0.4
2015-Jul-31 20:31N 53°38' W 000°12'0 0.0
2015-Jul-31 19:31N 53°38' W 000°12'0 0.0
2015-Jul-31 18:31N 53°38' W 000°12'0 0.0
2015-Jul-31 17:31N 53°38' W 000°12'0 0.0
2015-Jul-31 16:31N 53°38' W 000°12'0 0.0
2015-Jul-31 15:31N 53°38' W 000°12'0 0.0
2015-Jul-31 14:31N 53°38' W 000°12'0 0.0
2015-Jul-31 13:31N 53°38' W 000°12'0 0.0
2015-Jul-31 12:31N 53°38' W 000°12'0 0.0
2015-Jul-31 11:31N 53°38' W 000°12'0 0.0
2015-Jul-31 10:31N 53°38' W 000°12'0 0.0
2015-Jul-31 09:31N 53°38' W 000°12'0 0.3
2015-Jul-31 08:33N 53°38' W 000°12'2 1.5
2015-Jul-31 07:34N 53°38' W 000°09'9 8.9
2015-Jul-31 06:33N 53°34' E 000°05'1111.0
2015-Jul-31 05:33N 53°30' E 000°22'8 7.8
2015-Jul-31 04:33N 53°27' E 000°34'23 9.6
2015-Jul-31 02:07N 53°15' E 001°08'611.5
2015-Jul-31 01:34N 53°11' E 001°16'1414.1
2015-Jul-31 00:34N 53°00' E 001°31'1414.5
2015-Jul-30 23:33N 52°50' E 001°48'1312.9
2015-Jul-30 22:33N 52°39' E 002°01'1111.4
2015-Jul-30 21:34N 52°29' E 002°09'6410.7
2015-Jul-30 15:33N 51°28' E 002°43'8 8.4
2015-Jul-30 14:34N 51°22' E 002°52'1312.9
2015-Jul-30 13:33N 51°20' E 003°13'1 0.5
2015-Jul-30 12:33N 51°20' E 003°13'1 1.0
2015-Jul-30 11:32N 51°19' E 003°13'0 0.0
2015-Jul-30 10:29N 51°19' E 003°13'0 0.0
2015-Jul-30 09:32N 51°19' E 003°13'0 0.0
2015-Jul-30 08:32N 51°19' E 003°13'0 0.0
2015-Jul-30 07:32N 51°19' E 003°13'0 0.0
2015-Jul-30 06:32N 51°19' E 003°13'0 0.0
2015-Jul-30 05:32N 51°19' E 003°13'0 0.0
2015-Jul-30 04:32N 51°19' E 003°13'0 0.0
2015-Jul-30 03:32N 51°19' E 003°13'0 0.0
2015-Jul-30 02:32N 51°19' E 003°13'0 0.0
2015-Jul-30 01:32N 51°19' E 003°13'0 0.0
2015-Jul-30 00:32N 51°19' E 003°13'0 0.0
2015-Jul-29 23:32N 51°19' E 003°13'0 0.0
2015-Jul-29 22:32N 51°19' E 003°13'0 0.0
2015-Jul-29 21:32N 51°19' E 003°13'0 0.0
2015-Jul-29 20:32N 51°19' E 003°13'0 0.0
2015-Jul-29 19:32N 51°19' E 003°13'0 0.0
2015-Jul-29 18:32N 51°19' E 003°13'0 0.0
2015-Jul-29 17:31N 51°19' E 003°13'0 0.0
2015-Jul-29 16:31N 51°19' E 003°13'0 0.0
2015-Jul-29 15:31N 51°19' E 003°13'0 0.0
2015-Jul-29 14:31N 51°19' E 003°13'0 0.0
2015-Jul-29 13:31N 51°19' E 003°13'0 0.0
2015-Jul-29 12:31N 51°19' E 003°13'0 0.0
2015-Jul-29 11:28N 51°19' E 003°13'0 0.0
2015-Jul-29 10:31N 51°19' E 003°13'0 0.0
2015-Jul-29 09:31N 51°19' E 003°13'0 0.0
2015-Jul-29 08:32N 51°19' E 003°13'1 1.4
2015-Jul-29 07:33N 51°20' E 003°13'6 6.4
2015-Jul-29 06:33N 51°24' E 003°05'1413.8
2015-Jul-29 05:33N 51°22' E 002°43'1212.3
2015-Jul-29 04:33N 51°20' E 002°24'9 8.5
2015-Jul-29 03:33N 51°16' E 002°12'9 8.5
2015-Jul-29 02:34N 51°12' E 002°00'8 8.3
2015-Jul-29 01:33N 51°07' E 001°49'8 8.2
2015-Jul-29 00:34N 51°02' E 001°40'9 8.8
2015-Jul-28 23:34N 50°55' E 001°30'9 9.3
2015-Jul-28 22:33N 50°46' E 001°25'46 9.0
2015-Jul-28 17:28N 50°23' E 000°24'  
2015-Jul-26 04:06N 42°14' W 008°53'6 9.8
2015-Jul-26 03:33N 42°18' W 008°58'1010.2
2015-Jul-26 02:33N 42°23' W 009°09'1010.2
2015-Jul-26 01:33N 42°29' W 009°21'1010.1
2015-Jul-26 00:33N 42°34' W 009°33'1010.1
2015-Jul-25 23:34N 42°40' W 009°44'  
2015-Jul-23 03:05N 50°35' E 000°16'5 9.0
2015-Jul-23 02:34N 50°36' E 000°23'9 8.7
2015-Jul-23 01:33N 50°39' E 000°36'9 8.9
2015-Jul-23 00:33N 50°44' E 000°47'10 9.8
2015-Jul-22 23:34N 50°50' E 000°60'  

Dump ship's entire track history